sensor_id;sensor_type;location;lat;lon;timestamp;P1;durP1;ratioP1;P2;durP2;ratioP2
63008;SDS011;49099;28.428;-16.488;2022-09-03T00:00:13;18.50;;;3.28;;
63008;SDS011;49099;28.428;-16.488;2022-09-03T00:06:26;17.77;;;3.15;;
63008;SDS011;49099;28.428;-16.488;2022-09-03T00:09:43;20.75;;;3.20;;
63008;SDS011;49099;28.428;-16.488;2022-09-03T00:12:07;14.48;;;2.70;;
63008;SDS011;49099;28.428;-16.488;2022-09-03T00:14:48;17.60;;;2.67;;
63008;SDS011;49099;28.428;-16.488;2022-09-03T00:17:20;18.80;;;3.80;;
63008;SDS011;49099;28.428;-16.488;2022-09-03T00:19:54;14.88;;;2.38;;
63008;SDS011;49099;28.428;-16.488;2022-09-03T00:22:46;14.05;;;2.83;;
63008;SDS011;49099;28.428;-16.488;2022-09-03T00:25:18;14.73;;;2.17;;
63008;SDS011;49099;28.428;-16.488;2022-09-03T00:27:52;12.05;;;2.17;;
63008;SDS011;49099;28.428;-16.488;2022-09-03T00:30:23;16.98;;;2.63;;
63008;SDS011;49099;28.428;-16.488;2022-09-03T00:35:27;11.25;;;2.33;;
63008;SDS011;49099;28.428;-16.488;2022-09-03T00:37:59;18.17;;;2.53;;
63008;SDS011;49099;28.428;-16.488;2022-09-03T00:43:21;12.20;;;2.20;;
63008;SDS011;49099;28.428;-16.488;2022-09-03T00:49:23;17.13;;;2.30;;
63008;SDS011;49099;28.428;-16.488;2022-09-03T00:54:51;17.75;;;2.45;;
63008;SDS011;49099;28.428;-16.488;2022-09-03T01:16:43;8.30;;;1.80;;
63008;SDS011;49099;28.428;-16.488;2022-09-03T01:30:05;11.07;;;1.90;;
63008;SDS011;49099;28.428;-16.488;2022-09-03T01:32:40;13.35;;;2.20;;
63008;SDS011;49099;28.428;-16.488;2022-09-03T01:38:00;9.73;;;1.80;;
63008;SDS011;49099;28.428;-16.488;2022-09-03T01:40:44;9.40;;;1.90;;
63008;SDS011;49099;28.428;-16.488;2022-09-03T01:46:12;16.27;;;2.40;;
63008;SDS011;49099;28.428;-16.488;2022-09-03T01:52:13;9.48;;;1.92;;
63008;SDS011;49099;28.428;-16.488;2022-09-03T01:54:46;12.02;;;1.95;;
63008;SDS011;49099;28.428;-16.488;2022-09-03T02:00:08;9.85;;;2.50;;
63008;SDS011;49099;28.428;-16.488;2022-09-03T02:02:42;13.52;;;3.22;;
63008;SDS011;49099;28.428;-16.488;2022-09-03T02:13:13;14.52;;;4.60;;
63008;SDS011;49099;28.428;-16.488;2022-09-03T02:15:45;19.00;;;6.55;;
63008;SDS011;49099;28.428;-16.488;2022-09-03T02:18:19;14.52;;;5.95;;
63008;SDS011;49099;28.428;-16.488;2022-09-03T02:20:50;13.13;;;5.22;;
63008;SDS011;49099;28.428;-16.488;2022-09-03T02:23:19;15.02;;;5.88;;
63008;SDS011;49099;28.428;-16.488;2022-09-03T02:25:57;17.55;;;6.22;;
63008;SDS011;49099;28.428;-16.488;2022-09-03T02:30:54;13.15;;;5.57;;
63008;SDS011;49099;28.428;-16.488;2022-09-03T02:33:22;17.60;;;7.05;;
63008;SDS011;49099;28.428;-16.488;2022-09-03T02:35:50;16.52;;;7.13;;
63008;SDS011;49099;28.428;-16.488;2022-09-03T02:38:19;14.40;;;7.13;;
63008;SDS011;49099;28.428;-16.488;2022-09-03T02:40:51;21.15;;;10.98;;
63008;SDS011;49099;28.428;-16.488;2022-09-03T02:44:24;29.23;;;15.00;;
63008;SDS011;49099;28.428;-16.488;2022-09-03T02:49:07;16.67;;;5.55;;
63008;SDS011;49099;28.428;-16.488;2022-09-03T02:51:35;14.93;;;5.55;;
63008;SDS011;49099;28.428;-16.488;2022-09-03T02:54:05;16.52;;;6.18;;
63008;SDS011;49099;28.428;-16.488;2022-09-03T02:56:33;16.20;;;6.30;;
63008;SDS011;49099;28.428;-16.488;2022-09-03T02:59:01;11.88;;;5.00;;
63008;SDS011;49099;28.428;-16.488;2022-09-03T03:01:29;15.57;;;5.18;;
63008;SDS011;49099;28.428;-16.488;2022-09-03T03:03:57;15.02;;;4.78;;
63008;SDS011;49099;28.428;-16.488;2022-09-03T03:06:25;15.82;;;4.75;;
63008;SDS011;49099;28.428;-16.488;2022-09-03T03:08:52;19.38;;;5.22;;
63008;SDS011;49099;28.428;-16.488;2022-09-03T03:11:21;15.63;;;5.78;;
63008;SDS011;49099;28.428;-16.488;2022-09-03T03:13:49;15.15;;;6.70;;
63008;SDS011;49099;28.428;-16.488;2022-09-03T03:16:16;16.42;;;6.53;;
63008;SDS011;49099;28.428;-16.488;2022-09-03T03:18:44;14.73;;;5.90;;
63008;SDS011;49099;28.428;-16.488;2022-09-03T03:21:12;20.15;;;6.53;;
63008;SDS011;49099;28.428;-16.488;2022-09-03T03:23:41;14.40;;;5.75;;
63008;SDS011;49099;28.428;-16.488;2022-09-03T03:26:10;17.33;;;6.22;;
63008;SDS011;49099;28.428;-16.488;2022-09-03T03:28:39;17.70;;;5.47;;
63008;SDS011;49099;28.428;-16.488;2022-09-03T03:31:08;12.85;;;4.60;;
63008;SDS011;49099;28.428;-16.488;2022-09-03T03:33:37;12.88;;;4.38;;
63008;SDS011;49099;28.428;-16.488;2022-09-03T03:36:07;12.25;;;4.05;;
63008;SDS011;49099;28.428;-16.488;2022-09-03T03:38:36;12.85;;;4.00;;
63008;SDS011;49099;28.428;-16.488;2022-09-03T03:43:34;16.83;;;4.18;;
63008;SDS011;49099;28.428;-16.488;2022-09-03T03:46:01;11.95;;;3.85;;
63008;SDS011;49099;28.428;-16.488;2022-09-03T03:48:28;14.07;;;3.80;;
63008;SDS011;49099;28.428;-16.488;2022-09-03T03:50:59;11.82;;;3.65;;
63008;SDS011;49099;28.428;-16.488;2022-09-03T03:53:30;15.32;;;3.70;;
63008;SDS011;49099;28.428;-16.488;2022-09-03T03:55:58;12.63;;;3.70;;
63008;SDS011;49099;28.428;-16.488;2022-09-03T03:58:27;16.65;;;5.47;;
63008;SDS011;49099;28.428;-16.488;2022-09-03T04:01:06;14.02;;;5.28;;
63008;SDS011;49099;28.428;-16.488;2022-09-03T04:03:35;12.73;;;5.82;;
63008;SDS011;49099;28.428;-16.488;2022-09-03T04:06:03;13.88;;;5.70;;
63008;SDS011;49099;28.428;-16.488;2022-09-03T04:08:35;13.35;;;5.07;;
63008;SDS011;49099;28.428;-16.488;2022-09-03T04:11:04;16.55;;;5.30;;
63008;SDS011;49099;28.428;-16.488;2022-09-03T04:13:34;11.77;;;4.22;;
63008;SDS011;49099;28.428;-16.488;2022-09-03T04:16:03;9.05;;;4.03;;
63008;SDS011;49099;28.428;-16.488;2022-09-03T04:18:38;17.23;;;4.75;;
63008;SDS011;49099;28.428;-16.488;2022-09-03T04:21:10;16.23;;;4.68;;
63008;SDS011;49099;28.428;-16.488;2022-09-03T04:26:08;12.15;;;4.15;;
63008;SDS011;49099;28.428;-16.488;2022-09-03T04:28:37;10.02;;;4.10;;
63008;SDS011;49099;28.428;-16.488;2022-09-03T04:31:05;13.30;;;4.45;;
63008;SDS011;49099;28.428;-16.488;2022-09-03T04:33:34;13.90;;;3.40;;
63008;SDS011;49099;28.428;-16.488;2022-09-03T04:38:42;7.82;;;2.50;;
63008;SDS011;49099;28.428;-16.488;2022-09-03T04:41:12;12.38;;;2.63;;
63008;SDS011;49099;28.428;-16.488;2022-09-03T04:43:41;12.30;;;2.40;;
63008;SDS011;49099;28.428;-16.488;2022-09-03T04:46:11;6.68;;;2.08;;
63008;SDS011;49099;28.428;-16.488;2022-09-03T04:51:13;6.38;;;2.00;;
63008;SDS011;49099;28.428;-16.488;2022-09-03T04:53:43;10.40;;;2.08;;
63008;SDS011;49099;28.428;-16.488;2022-09-03T04:56:16;9.88;;;2.17;;
63008;SDS011;49099;28.428;-16.488;2022-09-03T04:58:47;6.82;;;1.75;;
63008;SDS011;49099;28.428;-16.488;2022-09-03T05:01:20;7.32;;;1.88;;
63008;SDS011;49099;28.428;-16.488;2022-09-03T05:03:48;7.28;;;1.90;;
63008;SDS011;49099;28.428;-16.488;2022-09-03T05:06:17;8.75;;;2.03;;
63008;SDS011;49099;28.428;-16.488;2022-09-03T05:08:48;10.52;;;2.05;;
63008;SDS011;49099;28.428;-16.488;2022-09-03T05:11:17;6.07;;;1.60;;
63008;SDS011;49099;28.428;-16.488;2022-09-03T05:13:48;7.00;;;1.75;;
63008;SDS011;49099;28.428;-16.488;2022-09-03T05:16:16;10.55;;;2.00;;
63008;SDS011;49099;28.428;-16.488;2022-09-03T05:18:44;6.28;;;1.70;;
63008;SDS011;49099;28.428;-16.488;2022-09-03T05:21:13;9.23;;;1.70;;
63008;SDS011;49099;28.428;-16.488;2022-09-03T05:23:42;8.40;;;2.30;;
63008;SDS011;49099;28.428;-16.488;2022-09-03T05:26:12;7.90;;;1.83;;
63008;SDS011;49099;28.428;-16.488;2022-09-03T05:28:41;13.93;;;2.17;;
63008;SDS011;49099;28.428;-16.488;2022-09-03T05:31:10;9.07;;;2.28;;
63008;SDS011;49099;28.428;-16.488;2022-09-03T05:33:39;11.57;;;1.88;;
63008;SDS011;49099;28.428;-16.488;2022-09-03T05:36:12;6.03;;;1.70;;
63008;SDS011;49099;28.428;-16.488;2022-09-03T05:38:41;11.63;;;2.00;;
63008;SDS011;49099;28.428;-16.488;2022-09-03T05:41:10;13.23;;;2.10;;
63008;SDS011;49099;28.428;-16.488;2022-09-03T05:43:38;7.88;;;1.90;;
63008;SDS011;49099;28.428;-16.488;2022-09-03T05:46:09;9.15;;;1.77;;
63008;SDS011;49099;28.428;-16.488;2022-09-03T05:48:38;6.15;;;1.38;;
63008;SDS011;49099;28.428;-16.488;2022-09-03T05:51:07;8.80;;;2.10;;
63008;SDS011;49099;28.428;-16.488;2022-09-03T05:53:37;6.45;;;1.75;;
63008;SDS011;49099;28.428;-16.488;2022-09-03T05:56:07;6.65;;;1.90;;
63008;SDS011;49099;28.428;-16.488;2022-09-03T05:58:39;6.15;;;1.85;;
63008;SDS011;49099;28.428;-16.488;2022-09-03T06:01:10;6.28;;;1.95;;
63008;SDS011;49099;28.428;-16.488;2022-09-03T06:03:46;7.15;;;1.85;;
63008;SDS011;49099;28.428;-16.488;2022-09-03T06:06:19;8.95;;;1.98;;
63008;SDS011;49099;28.428;-16.488;2022-09-03T06:08:51;10.75;;;2.55;;
63008;SDS011;49099;28.428;-16.488;2022-09-03T06:11:20;6.53;;;2.30;;
63008;SDS011;49099;28.428;-16.488;2022-09-03T06:13:56;9.32;;;2.63;;
63008;SDS011;49099;28.428;-16.488;2022-09-03T06:16:29;16.50;;;2.55;;
63008;SDS011;49099;28.428;-16.488;2022-09-03T06:18:58;13.63;;;2.55;;
63008;SDS011;49099;28.428;-16.488;2022-09-03T06:21:26;6.38;;;1.92;;
63008;SDS011;49099;28.428;-16.488;2022-09-03T06:23:55;8.65;;;2.03;;
63008;SDS011;49099;28.428;-16.488;2022-09-03T06:26:25;6.53;;;2.10;;
63008;SDS011;49099;28.428;-16.488;2022-09-03T06:28:54;7.55;;;2.08;;
63008;SDS011;49099;28.428;-16.488;2022-09-03T06:31:22;7.10;;;2.20;;
63008;SDS011;49099;28.428;-16.488;2022-09-03T06:33:51;8.48;;;2.53;;
63008;SDS011;49099;28.428;-16.488;2022-09-03T06:36:21;11.70;;;2.70;;
63008;SDS011;49099;28.428;-16.488;2022-09-03T06:38:53;10.30;;;2.70;;
63008;SDS011;49099;28.428;-16.488;2022-09-03T06:41:23;10.75;;;2.72;;
63008;SDS011;49099;28.428;-16.488;2022-09-03T06:44:07;6.68;;;2.05;;
63008;SDS011;49099;28.428;-16.488;2022-09-03T06:46:37;9.43;;;2.53;;
63008;SDS011;49099;28.428;-16.488;2022-09-03T06:49:08;8.65;;;2.40;;
63008;SDS011;49099;28.428;-16.488;2022-09-03T06:51:37;10.88;;;2.50;;
63008;SDS011;49099;28.428;-16.488;2022-09-03T06:54:08;11.82;;;2.17;;
63008;SDS011;49099;28.428;-16.488;2022-09-03T06:56:37;15.15;;;2.63;;
63008;SDS011;49099;28.428;-16.488;2022-09-03T06:59:07;8.55;;;2.45;;
63008;SDS011;49099;28.428;-16.488;2022-09-03T07:01:36;12.43;;;2.63;;
63008;SDS011;49099;28.428;-16.488;2022-09-03T07:04:11;12.15;;;2.92;;
63008;SDS011;49099;28.428;-16.488;2022-09-03T07:06:39;9.38;;;2.22;;
63008;SDS011;49099;28.428;-16.488;2022-09-03T07:09:09;12.30;;;2.00;;
63008;SDS011;49099;28.428;-16.488;2022-09-03T07:11:38;11.80;;;1.98;;
63008;SDS011;49099;28.428;-16.488;2022-09-03T07:14:15;11.00;;;1.95;;
63008;SDS011;49099;28.428;-16.488;2022-09-03T07:16:47;9.93;;;1.90;;
63008;SDS011;49099;28.428;-16.488;2022-09-03T07:19:15;5.97;;;1.98;;
63008;SDS011;49099;28.428;-16.488;2022-09-03T07:21:43;9.27;;;1.83;;
63008;SDS011;49099;28.428;-16.488;2022-09-03T07:24:16;13.52;;;1.75;;
63008;SDS011;49099;28.428;-16.488;2022-09-03T07:26:44;9.13;;;1.90;;
63008;SDS011;49099;28.428;-16.488;2022-09-03T07:29:12;11.23;;;2.00;;
63008;SDS011;49099;28.428;-16.488;2022-09-03T07:31:41;7.50;;;1.58;;
63008;SDS011;49099;28.428;-16.488;2022-09-03T07:34:10;5.22;;;1.63;;
63008;SDS011;49099;28.428;-16.488;2022-09-03T07:36:39;13.40;;;2.00;;
63008;SDS011;49099;28.428;-16.488;2022-09-03T07:39:09;10.90;;;2.03;;
63008;SDS011;49099;28.428;-16.488;2022-09-03T07:41:37;8.30;;;1.58;;
63008;SDS011;49099;28.428;-16.488;2022-09-03T07:44:08;7.50;;;1.75;;
63008;SDS011;49099;28.428;-16.488;2022-09-03T07:46:36;10.32;;;2.13;;
63008;SDS011;49099;28.428;-16.488;2022-09-03T07:49:04;12.52;;;2.38;;
63008;SDS011;49099;28.428;-16.488;2022-09-03T07:51:33;8.38;;;1.58;;
63008;SDS011;49099;28.428;-16.488;2022-09-03T07:54:03;8.85;;;1.80;;
63008;SDS011;49099;28.428;-16.488;2022-09-03T07:56:33;12.45;;;2.03;;
63008;SDS011;49099;28.428;-16.488;2022-09-03T07:59:01;9.80;;;2.03;;
63008;SDS011;49099;28.428;-16.488;2022-09-03T08:01:29;12.10;;;2.08;;
63008;SDS011;49099;28.428;-16.488;2022-09-03T08:03:58;10.55;;;2.03;;
63008;SDS011;49099;28.428;-16.488;2022-09-03T08:06:27;10.93;;;1.70;;
63008;SDS011;49099;28.428;-16.488;2022-09-03T08:08:55;14.10;;;2.00;;
63008;SDS011;49099;28.428;-16.488;2022-09-03T08:11:31;11.07;;;2.17;;
63008;SDS011;49099;28.428;-16.488;2022-09-03T08:14:09;8.30;;;1.83;;
63008;SDS011;49099;28.428;-16.488;2022-09-03T08:16:39;8.95;;;1.95;;
63008;SDS011;49099;28.428;-16.488;2022-09-03T08:19:07;6.07;;;1.50;;
63008;SDS011;49099;28.428;-16.488;2022-09-03T08:21:36;8.40;;;1.58;;
63008;SDS011;49099;28.428;-16.488;2022-09-03T08:24:04;7.97;;;1.50;;
63008;SDS011;49099;28.428;-16.488;2022-09-03T08:26:35;12.98;;;1.98;;
63008;SDS011;49099;28.428;-16.488;2022-09-03T08:29:04;7.25;;;1.60;;
63008;SDS011;49099;28.428;-16.488;2022-09-03T08:31:32;7.35;;;1.50;;
63008;SDS011;49099;28.428;-16.488;2022-09-03T08:34:02;11.55;;;2.05;;
63008;SDS011;49099;28.428;-16.488;2022-09-03T08:36:36;11.27;;;2.03;;
63008;SDS011;49099;28.428;-16.488;2022-09-03T08:39:06;10.88;;;1.77;;
63008;SDS011;49099;28.428;-16.488;2022-09-03T08:47:04;14.35;;;2.00;;
63008;SDS011;49099;28.428;-16.488;2022-09-03T08:49:34;10.70;;;1.67;;
63008;SDS011;49099;28.428;-16.488;2022-09-03T08:52:06;8.93;;;1.50;;
63008;SDS011;49099;28.428;-16.488;2022-09-03T08:54:43;6.68;;;1.58;;
63008;SDS011;49099;28.428;-16.488;2022-09-03T08:57:10;5.65;;;1.50;;
63008;SDS011;49099;28.428;-16.488;2022-09-03T08:59:39;7.47;;;1.90;;
63008;SDS011;49099;28.428;-16.488;2022-09-03T09:02:15;14.45;;;1.95;;
63008;SDS011;49099;28.428;-16.488;2022-09-03T09:16:26;9.43;;;1.60;;
63008;SDS011;49099;28.428;-16.488;2022-09-03T09:21:40;12.73;;;1.83;;
63008;SDS011;49099;28.428;-16.488;2022-09-03T09:24:21;8.70;;;1.50;;
63008;SDS011;49099;28.428;-16.488;2022-09-03T09:26:54;11.20;;;1.67;;
63008;SDS011;49099;28.428;-16.488;2022-09-03T09:29:26;12.07;;;1.67;;
63008;SDS011;49099;28.428;-16.488;2022-09-03T09:31:58;7.60;;;1.42;;
63008;SDS011;49099;28.428;-16.488;2022-09-03T09:34:25;9.13;;;1.63;;
63008;SDS011;49099;28.428;-16.488;2022-09-03T09:36:54;6.22;;;1.30;;
63008;SDS011;49099;28.428;-16.488;2022-09-03T09:39:21;9.00;;;1.60;;
63008;SDS011;49099;28.428;-16.488;2022-09-03T09:41:56;9.13;;;1.55;;
63008;SDS011;49099;28.428;-16.488;2022-09-03T09:44:38;7.15;;;1.35;;
63008;SDS011;49099;28.428;-16.488;2022-09-03T09:47:09;7.30;;;1.40;;
63008;SDS011;49099;28.428;-16.488;2022-09-03T09:49:49;10.60;;;1.52;;
63008;SDS011;49099;28.428;-16.488;2022-09-03T09:52:28;5.38;;;1.40;;
63008;SDS011;49099;28.428;-16.488;2022-09-03T09:55:10;11.23;;;1.65;;
63008;SDS011;49099;28.428;-16.488;2022-09-03T09:57:41;8.55;;;1.48;;
63008;SDS011;49099;28.428;-16.488;2022-09-03T10:00:10;6.63;;;1.20;;
63008;SDS011;49099;28.428;-16.488;2022-09-03T10:02:47;4.90;;;1.10;;
63008;SDS011;49099;28.428;-16.488;2022-09-03T10:05:20;7.43;;;1.52;;
63008;SDS011;49099;28.428;-16.488;2022-09-03T10:08:25;6.63;;;1.33;;
63008;SDS011;49099;28.428;-16.488;2022-09-03T10:10:49;4.85;;;1.17;;
63008;SDS011;49099;28.428;-16.488;2022-09-03T10:15:53;9.95;;;1.67;;
63008;SDS011;49099;28.428;-16.488;2022-09-03T10:18:26;8.68;;;1.45;;
63008;SDS011;49099;28.428;-16.488;2022-09-03T10:21:44;10.02;;;1.80;;
63008;SDS011;49099;28.428;-16.488;2022-09-03T10:23:57;9.35;;;1.58;;
63008;SDS011;49099;28.428;-16.488;2022-09-03T10:26:33;9.93;;;1.48;;
63008;SDS011;49099;28.428;-16.488;2022-09-03T10:29:03;10.80;;;1.60;;
63008;SDS011;49099;28.428;-16.488;2022-09-03T10:34:57;5.03;;;1.23;;
63008;SDS011;49099;28.428;-16.488;2022-09-03T10:40:33;10.75;;;1.58;;
63008;SDS011;49099;28.428;-16.488;2022-09-03T10:43:14;10.13;;;1.52;;
63008;SDS011;49099;28.428;-16.488;2022-09-03T10:46:10;10.65;;;1.52;;
63008;SDS011;49099;28.428;-16.488;2022-09-03T10:48:55;9.20;;;1.33;;
63008;SDS011;49099;28.428;-16.488;2022-09-03T10:52:01;8.85;;;1.50;;
63008;SDS011;49099;28.428;-16.488;2022-09-03T10:59:59;6.38;;;1.35;;
63008;SDS011;49099;28.428;-16.488;2022-09-03T11:05:04;9.10;;;1.60;;
63008;SDS011;49099;28.428;-16.488;2022-09-03T11:07:39;7.97;;;1.45;;
63008;SDS011;49099;28.428;-16.488;2022-09-03T11:10:23;6.20;;;1.25;;
63008;SDS011;49099;28.428;-16.488;2022-09-03T11:15:25;8.10;;;1.50;;
63008;SDS011;49099;28.428;-16.488;2022-09-03T11:17:58;10.73;;;1.77;;
63008;SDS011;49099;28.428;-16.488;2022-09-03T11:20:28;9.93;;;1.52;;
63008;SDS011;49099;28.428;-16.488;2022-09-03T11:23:02;7.68;;;1.40;;
63008;SDS011;49099;28.428;-16.488;2022-09-03T11:30:48;9.52;;;1.50;;
63008;SDS011;49099;28.428;-16.488;2022-09-03T11:33:29;9.35;;;1.55;;
63008;SDS011;49099;28.428;-16.488;2022-09-03T11:36:04;10.10;;;1.60;;
63008;SDS011;49099;28.428;-16.488;2022-09-03T11:38:32;9.85;;;1.60;;
63008;SDS011;49099;28.428;-16.488;2022-09-03T11:41:00;9.70;;;1.50;;
63008;SDS011;49099;28.428;-16.488;2022-09-03T11:43:40;8.70;;;1.40;;
63008;SDS011;49099;28.428;-16.488;2022-09-03T11:48:48;5.43;;;1.40;;
63008;SDS011;49099;28.428;-16.488;2022-09-03T11:53:57;8.80;;;1.63;;
63008;SDS011;49099;28.428;-16.488;2022-09-03T11:56:26;5.63;;;1.30;;
63008;SDS011;49099;28.428;-16.488;2022-09-03T11:59:36;7.45;;;1.40;;
63008;SDS011;49099;28.428;-16.488;2022-09-03T12:01:55;10.82;;;1.55;;
63008;SDS011;49099;28.428;-16.488;2022-09-03T12:04:25;8.88;;;1.80;;
63008;SDS011;49099;28.428;-16.488;2022-09-03T12:18:20;8.55;;;1.55;;
63008;SDS011;49099;28.428;-16.488;2022-09-03T12:23:42;9.38;;;1.52;;
63008;SDS011;49099;28.428;-16.488;2022-09-03T12:26:12;8.38;;;1.50;;
63008;SDS011;49099;28.428;-16.488;2022-09-03T12:28:41;11.85;;;1.60;;
63008;SDS011;49099;28.428;-16.488;2022-09-03T12:31:44;11.32;;;1.70;;
63008;SDS011;49099;28.428;-16.488;2022-09-03T12:34:11;11.90;;;2.10;;
63008;SDS011;49099;28.428;-16.488;2022-09-03T12:36:42;9.60;;;1.60;;
63008;SDS011;49099;28.428;-16.488;2022-09-03T12:39:26;7.35;;;1.80;;
63008;SDS011;49099;28.428;-16.488;2022-09-03T12:42:17;11.93;;;1.75;;
63008;SDS011;49099;28.428;-16.488;2022-09-03T12:44:53;9.02;;;1.75;;
63008;SDS011;49099;28.428;-16.488;2022-09-03T12:47:21;12.15;;;1.90;;
63008;SDS011;49099;28.428;-16.488;2022-09-03T12:50:06;10.05;;;1.70;;
63008;SDS011;49099;28.428;-16.488;2022-09-03T12:53:19;13.80;;;1.70;;
63008;SDS011;49099;28.428;-16.488;2022-09-03T12:55:54;12.48;;;2.40;;
63008;SDS011;49099;28.428;-16.488;2022-09-03T12:58:35;7.95;;;2.35;;
63008;SDS011;49099;28.428;-16.488;2022-09-03T13:01:23;9.07;;;2.67;;
63008;SDS011;49099;28.428;-16.488;2022-09-03T13:04:13;9.27;;;2.70;;
63008;SDS011;49099;28.428;-16.488;2022-09-03T13:06:54;11.07;;;2.50;;
63008;SDS011;49099;28.428;-16.488;2022-09-03T13:09:29;10.07;;;2.20;;
63008;SDS011;49099;28.428;-16.488;2022-09-03T13:12:01;10.25;;;2.00;;
63008;SDS011;49099;28.428;-16.488;2022-09-03T13:14:43;6.90;;;1.80;;
63008;SDS011;49099;28.428;-16.488;2022-09-03T13:25:29;7.13;;;1.90;;
63008;SDS011;49099;28.428;-16.488;2022-09-03T13:28:16;7.78;;;1.38;;
63008;SDS011;49099;28.428;-16.488;2022-09-03T13:31:10;10.05;;;2.10;;
63008;SDS011;49099;28.428;-16.488;2022-09-03T13:33:53;14.25;;;2.10;;
63008;SDS011;49099;28.428;-16.488;2022-09-03T13:36:40;10.38;;;2.55;;
63008;SDS011;49099;28.428;-16.488;2022-09-03T13:41:55;9.38;;;1.77;;
63008;SDS011;49099;28.428;-16.488;2022-09-03T13:44:47;11.35;;;2.10;;
63008;SDS011;49099;28.428;-16.488;2022-09-03T13:50:30;9.70;;;2.00;;
63008;SDS011;49099;28.428;-16.488;2022-09-03T13:53:18;11.95;;;1.83;;
63008;SDS011;49099;28.428;-16.488;2022-09-03T13:56:43;9.98;;;1.70;;
63008;SDS011;49099;28.428;-16.488;2022-09-03T13:59:17;8.88;;;2.08;;
63008;SDS011;49099;28.428;-16.488;2022-09-03T14:05:00;7.28;;;1.67;;
63008;SDS011;49099;28.428;-16.488;2022-09-03T14:19:38;9.85;;;1.60;;
63008;SDS011;49099;28.428;-16.488;2022-09-03T14:24:43;9.95;;;1.60;;
63008;SDS011;49099;28.428;-16.488;2022-09-03T14:27:11;11.10;;;1.90;;
63008;SDS011;49099;28.428;-16.488;2022-09-03T14:29:48;9.38;;;1.60;;
63008;SDS011;49099;28.428;-16.488;2022-09-03T14:40:48;8.43;;;1.55;;
63008;SDS011;49099;28.428;-16.488;2022-09-03T14:43:36;11.35;;;1.90;;
63008;SDS011;49099;28.428;-16.488;2022-09-03T14:49:14;9.55;;;1.52;;
63008;SDS011;49099;28.428;-16.488;2022-09-03T14:52:18;15.75;;;1.90;;
63008;SDS011;49099;28.428;-16.488;2022-09-03T14:54:58;6.88;;;1.52;;
63008;SDS011;49099;28.428;-16.488;2022-09-03T15:00:20;9.80;;;1.80;;
63008;SDS011;49099;28.428;-16.488;2022-09-03T15:11:18;9.07;;;1.90;;
63008;SDS011;49099;28.428;-16.488;2022-09-03T15:13:50;14.88;;;1.77;;
63008;SDS011;49099;28.428;-16.488;2022-09-03T15:33:22;5.57;;;1.33;;
63008;SDS011;49099;28.428;-16.488;2022-09-03T15:36:27;8.32;;;1.65;;
63008;SDS011;49099;28.428;-16.488;2022-09-03T15:39:12;6.38;;;1.45;;
63008;SDS011;49099;28.428;-16.488;2022-09-03T15:41:51;11.80;;;1.88;;
63008;SDS011;49099;28.428;-16.488;2022-09-03T15:44:23;7.90;;;1.25;;
63008;SDS011;49099;28.428;-16.488;2022-09-03T16:00:17;5.72;;;1.48;;
63008;SDS011;49099;28.428;-16.488;2022-09-03T16:02:54;10.27;;;1.70;;
63008;SDS011;49099;28.428;-16.488;2022-09-03T16:08:31;8.95;;;1.50;;
63008;SDS011;49099;28.428;-16.488;2022-09-03T16:11:14;15.50;;;1.95;;
63008;SDS011;49099;28.428;-16.488;2022-09-03T16:19:02;7.13;;;1.30;;
63008;SDS011;49099;28.428;-16.488;2022-09-03T16:24:37;7.53;;;1.60;;
63008;SDS011;49099;28.428;-16.488;2022-09-03T16:27:14;7.07;;;1.42;;
63008;SDS011;49099;28.428;-16.488;2022-09-03T16:30:11;8.93;;;1.58;;
63008;SDS011;49099;28.428;-16.488;2022-09-03T16:32:45;10.05;;;1.60;;
63008;SDS011;49099;28.428;-16.488;2022-09-03T16:44:17;8.63;;;1.60;;
63008;SDS011;49099;28.428;-16.488;2022-09-03T16:47:00;4.75;;;1.17;;
63008;SDS011;49099;28.428;-16.488;2022-09-03T16:53:00;11.63;;;1.55;;
63008;SDS011;49099;28.428;-16.488;2022-09-03T17:06:19;6.88;;;1.20;;
63008;SDS011;49099;28.428;-16.488;2022-09-03T17:09:40;6.10;;;1.30;;
63008;SDS011;49099;28.428;-16.488;2022-09-03T17:12:24;9.43;;;1.33;;
63008;SDS011;49099;28.428;-16.488;2022-09-03T17:17:40;7.65;;;1.35;;
63008;SDS011;49099;28.428;-16.488;2022-09-03T17:20:20;7.00;;;1.63;;
63008;SDS011;49099;28.428;-16.488;2022-09-03T17:23:07;9.05;;;1.60;;
63008;SDS011;49099;28.428;-16.488;2022-09-03T17:40:30;6.78;;;1.15;;
63008;SDS011;49099;28.428;-16.488;2022-09-03T17:45:40;4.05;;;1.02;;
63008;SDS011;49099;28.428;-16.488;2022-09-03T17:51:29;8.90;;;1.58;;
63008;SDS011;49099;28.428;-16.488;2022-09-03T17:56:41;8.73;;;1.40;;
63008;SDS011;49099;28.428;-16.488;2022-09-03T18:01:47;9.32;;;1.30;;
63008;SDS011;49099;28.428;-16.488;2022-09-03T18:04:30;8.55;;;1.50;;
63008;SDS011;49099;28.428;-16.488;2022-09-03T18:07:09;9.43;;;1.60;;
63008;SDS011;49099;28.428;-16.488;2022-09-03T18:18:27;8.85;;;1.55;;
63008;SDS011;49099;28.428;-16.488;2022-09-03T18:20:59;8.63;;;1.20;;
63008;SDS011;49099;28.428;-16.488;2022-09-03T18:24:01;7.95;;;1.40;;
63008;SDS011;49099;28.428;-16.488;2022-09-03T18:27:06;7.18;;;1.30;;
63008;SDS011;49099;28.428;-16.488;2022-09-03T18:30:04;7.07;;;1.30;;
63008;SDS011;49099;28.428;-16.488;2022-09-03T18:32:52;5.93;;;1.23;;
63008;SDS011;49099;28.428;-16.488;2022-09-03T18:35:37;8.40;;;1.30;;
63008;SDS011;49099;28.428;-16.488;2022-09-03T18:38:27;11.40;;;1.75;;
63008;SDS011;49099;28.428;-16.488;2022-09-03T18:41:20;5.97;;;1.42;;
63008;SDS011;49099;28.428;-16.488;2022-09-03T18:47:34;8.15;;;1.30;;
63008;SDS011;49099;28.428;-16.488;2022-09-03T18:50:43;4.07;;;1.00;;
63008;SDS011;49099;28.428;-16.488;2022-09-03T18:53:41;9.80;;;1.45;;
63008;SDS011;49099;28.428;-16.488;2022-09-03T18:56:51;6.78;;;1.45;;
63008;SDS011;49099;28.428;-16.488;2022-09-03T19:05:59;9.55;;;1.70;;
63008;SDS011;49099;28.428;-16.488;2022-09-03T19:09:16;9.00;;;1.40;;
63008;SDS011;49099;28.428;-16.488;2022-09-03T19:20:54;8.25;;;1.33;;
63008;SDS011;49099;28.428;-16.488;2022-09-03T19:23:42;8.30;;;1.10;;
63008;SDS011;49099;28.428;-16.488;2022-09-03T19:26:50;8.57;;;1.38;;
63008;SDS011;49099;28.428;-16.488;2022-09-03T19:30:07;5.38;;;1.40;;
63008;SDS011;49099;28.428;-16.488;2022-09-03T19:33:12;13.75;;;2.15;;
63008;SDS011;49099;28.428;-16.488;2022-09-03T19:36:08;11.25;;;1.60;;
63008;SDS011;49099;28.428;-16.488;2022-09-03T19:41:57;7.85;;;1.50;;
63008;SDS011;49099;28.428;-16.488;2022-09-03T19:48:26;6.80;;;1.40;;
63008;SDS011;49099;28.428;-16.488;2022-09-03T19:51:21;8.68;;;1.63;;
63008;SDS011;49099;28.428;-16.488;2022-09-03T19:54:14;7.05;;;1.65;;
63008;SDS011;49099;28.428;-16.488;2022-09-03T19:57:02;8.75;;;1.25;;
63008;SDS011;49099;28.428;-16.488;2022-09-03T19:59:48;6.57;;;1.20;;
63008;SDS011;49099;28.428;-16.488;2022-09-03T20:02:34;4.90;;;1.23;;
63008;SDS011;49099;28.428;-16.488;2022-09-03T20:05:22;5.72;;;1.15;;
63008;SDS011;49099;28.428;-16.488;2022-09-03T20:08:07;8.93;;;1.70;;
63008;SDS011;49099;28.428;-16.488;2022-09-03T20:10:58;11.27;;;1.50;;
63008;SDS011;49099;28.428;-16.488;2022-09-03T20:13:26;7.93;;;1.40;;
63008;SDS011;49099;28.428;-16.488;2022-09-03T20:19:22;13.80;;;1.83;;
63008;SDS011;49099;28.428;-16.488;2022-09-03T20:30:53;5.22;;;1.33;;
63008;SDS011;49099;28.428;-16.488;2022-09-03T20:47:23;5.72;;;1.40;;
63008;SDS011;49099;28.428;-16.488;2022-09-03T20:56:07;6.82;;;1.77;;
63008;SDS011;49099;28.428;-16.488;2022-09-03T21:01:12;7.32;;;1.35;;
63008;SDS011;49099;28.428;-16.488;2022-09-03T21:04:50;8.82;;;1.63;;
63008;SDS011;49099;28.428;-16.488;2022-09-03T21:14:57;5.55;;;1.23;;